sensor_id;sensor_type;location;lat;lon;timestamp;P1;durP1;ratioP1;P2;durP2;ratioP2
10126;SDS011;13080;42.608;23.362;2022-07-23T00:01:58;5.95;;;3.47;;
10126;SDS011;13080;42.608;23.362;2022-07-23T00:04:24;8.65;;;4.20;;
10126;SDS011;13080;42.608;23.362;2022-07-23T00:06:51;6.30;;;4.20;;
10126;SDS011;13080;42.608;23.362;2022-07-23T00:09:18;6.03;;;3.40;;
10126;SDS011;13080;42.608;23.362;2022-07-23T00:11:45;11.63;;;3.83;;
10126;SDS011;13080;42.608;23.362;2022-07-23T00:14:11;34.67;;;16.13;;
10126;SDS011;13080;42.608;23.362;2022-07-23T00:16:38;38.88;;;20.73;;
10126;SDS011;13080;42.608;23.362;2022-07-23T00:19:06;19.40;;;11.38;;
10126;SDS011;13080;42.608;23.362;2022-07-23T00:21:33;13.40;;;7.35;;
10126;SDS011;13080;42.608;23.362;2022-07-23T00:24:00;19.58;;;9.57;;
10126;SDS011;13080;42.608;23.362;2022-07-23T00:26:27;15.48;;;9.82;;
10126;SDS011;13080;42.608;23.362;2022-07-23T00:28:53;16.77;;;10.15;;
10126;SDS011;13080;42.608;23.362;2022-07-23T00:31:20;11.43;;;6.00;;
10126;SDS011;13080;42.608;23.362;2022-07-23T00:33:47;9.93;;;5.38;;
10126;SDS011;13080;42.608;23.362;2022-07-23T00:36:15;5.85;;;3.40;;
10126;SDS011;13080;42.608;23.362;2022-07-23T00:38:42;5.55;;;3.65;;
10126;SDS011;13080;42.608;23.362;2022-07-23T00:41:09;7.00;;;3.78;;
10126;SDS011;13080;42.608;23.362;2022-07-23T00:43:36;8.05;;;3.90;;
10126;SDS011;13080;42.608;23.362;2022-07-23T00:46:03;5.10;;;3.45;;
10126;SDS011;13080;42.608;23.362;2022-07-23T00:48:29;5.85;;;3.28;;
10126;SDS011;13080;42.608;23.362;2022-07-23T00:50:56;6.10;;;3.30;;
10126;SDS011;13080;42.608;23.362;2022-07-23T00:53:25;5.18;;;3.20;;
10126;SDS011;13080;42.608;23.362;2022-07-23T00:55:51;7.15;;;3.50;;
10126;SDS011;13080;42.608;23.362;2022-07-23T00:58:20;5.78;;;3.78;;
10126;SDS011;13080;42.608;23.362;2022-07-23T01:00:46;4.53;;;3.53;;
10126;SDS011;13080;42.608;23.362;2022-07-23T01:03:13;5.75;;;3.80;;
10126;SDS011;13080;42.608;23.362;2022-07-23T01:05:40;5.25;;;3.30;;
10126;SDS011;13080;42.608;23.362;2022-07-23T01:08:07;5.00;;;3.92;;
10126;SDS011;13080;42.608;23.362;2022-07-23T01:10:35;5.75;;;3.97;;
10126;SDS011;13080;42.608;23.362;2022-07-23T01:13:02;4.05;;;3.30;;
10126;SDS011;13080;42.608;23.362;2022-07-23T01:15:31;7.15;;;4.35;;
10126;SDS011;13080;42.608;23.362;2022-07-23T01:17:58;8.57;;;3.75;;
10126;SDS011;13080;42.608;23.362;2022-07-23T01:20:25;5.55;;;3.40;;
10126;SDS011;13080;42.608;23.362;2022-07-23T01:22:54;7.00;;;3.83;;
10126;SDS011;13080;42.608;23.362;2022-07-23T01:25:21;6.88;;;3.78;;
10126;SDS011;13080;42.608;23.362;2022-07-23T01:27:48;8.05;;;3.50;;
10126;SDS011;13080;42.608;23.362;2022-07-23T01:30:15;11.90;;;3.80;;
10126;SDS011;13080;42.608;23.362;2022-07-23T01:32:42;9.13;;;3.95;;
10126;SDS011;13080;42.608;23.362;2022-07-23T01:35:09;7.20;;;3.92;;
10126;SDS011;13080;42.608;23.362;2022-07-23T01:37:36;6.43;;;3.38;;
10126;SDS011;13080;42.608;23.362;2022-07-23T01:40:05;6.70;;;3.40;;
10126;SDS011;13080;42.608;23.362;2022-07-23T01:42:33;8.07;;;3.92;;
10126;SDS011;13080;42.608;23.362;2022-07-23T01:44:59;4.63;;;3.60;;
10126;SDS011;13080;42.608;23.362;2022-07-23T01:47:26;5.20;;;3.38;;
10126;SDS011;13080;42.608;23.362;2022-07-23T01:49:53;6.10;;;3.65;;
10126;SDS011;13080;42.608;23.362;2022-07-23T01:52:20;8.45;;;3.75;;
10126;SDS011;13080;42.608;23.362;2022-07-23T01:54:47;6.00;;;3.72;;
10126;SDS011;13080;42.608;23.362;2022-07-23T01:57:15;6.47;;;3.72;;
10126;SDS011;13080;42.608;23.362;2022-07-23T01:59:42;4.65;;;3.60;;
10126;SDS011;13080;42.608;23.362;2022-07-23T02:02:08;6.13;;;3.33;;
10126;SDS011;13080;42.608;23.362;2022-07-23T02:04:35;5.07;;;3.50;;
10126;SDS011;13080;42.608;23.362;2022-07-23T02:07:02;5.15;;;3.45;;
10126;SDS011;13080;42.608;23.362;2022-07-23T02:09:29;7.00;;;3.50;;
10126;SDS011;13080;42.608;23.362;2022-07-23T02:11:56;8.18;;;4.03;;
10126;SDS011;13080;42.608;23.362;2022-07-23T02:14:24;5.22;;;3.40;;
10126;SDS011;13080;42.608;23.362;2022-07-23T02:16:51;5.18;;;3.40;;
10126;SDS011;13080;42.608;23.362;2022-07-23T02:19:18;6.13;;;3.80;;
10126;SDS011;13080;42.608;23.362;2022-07-23T02:21:45;8.38;;;3.80;;
10126;SDS011;13080;42.608;23.362;2022-07-23T02:24:11;8.43;;;3.85;;
10126;SDS011;13080;42.608;23.362;2022-07-23T02:26:38;6.40;;;3.22;;
10126;SDS011;13080;42.608;23.362;2022-07-23T02:29:05;5.35;;;3.08;;
10126;SDS011;13080;42.608;23.362;2022-07-23T02:31:33;7.60;;;3.55;;
10126;SDS011;13080;42.608;23.362;2022-07-23T02:34:00;6.50;;;3.80;;
10126;SDS011;13080;42.608;23.362;2022-07-23T02:36:27;8.45;;;3.70;;
10126;SDS011;13080;42.608;23.362;2022-07-23T02:38:55;7.28;;;3.90;;
10126;SDS011;13080;42.608;23.362;2022-07-23T02:41:22;7.68;;;3.47;;
10126;SDS011;13080;42.608;23.362;2022-07-23T02:43:49;9.23;;;3.47;;
10126;SDS011;13080;42.608;23.362;2022-07-23T02:46:16;5.22;;;3.53;;
10126;SDS011;13080;42.608;23.362;2022-07-23T02:48:44;6.93;;;4.00;;
10126;SDS011;13080;42.608;23.362;2022-07-23T02:51:11;7.28;;;3.35;;
10126;SDS011;13080;42.608;23.362;2022-07-23T02:53:38;5.32;;;3.72;;
10126;SDS011;13080;42.608;23.362;2022-07-23T02:56:04;5.47;;;3.40;;
10126;SDS011;13080;42.608;23.362;2022-07-23T02:58:31;7.18;;;3.88;;
10126;SDS011;13080;42.608;23.362;2022-07-23T03:00:58;5.38;;;3.33;;
10126;SDS011;13080;42.608;23.362;2022-07-23T03:03:25;8.07;;;3.45;;
10126;SDS011;13080;42.608;23.362;2022-07-23T03:05:53;8.30;;;3.65;;
10126;SDS011;13080;42.608;23.362;2022-07-23T03:08:19;6.60;;;3.20;;
10126;SDS011;13080;42.608;23.362;2022-07-23T03:10:46;5.90;;;3.80;;
10126;SDS011;13080;42.608;23.362;2022-07-23T03:13:13;3.40;;;3.10;;
10126;SDS011;13080;42.608;23.362;2022-07-23T03:15:40;7.47;;;3.58;;
10126;SDS011;13080;42.608;23.362;2022-07-23T03:18:07;11.13;;;4.25;;
10126;SDS011;13080;42.608;23.362;2022-07-23T03:20:33;4.25;;;3.47;;
10126;SDS011;13080;42.608;23.362;2022-07-23T03:23:02;6.03;;;3.45;;
10126;SDS011;13080;42.608;23.362;2022-07-23T03:25:28;4.00;;;3.50;;
10126;SDS011;13080;42.608;23.362;2022-07-23T03:27:55;8.40;;;3.83;;
10126;SDS011;13080;42.608;23.362;2022-07-23T03:30:22;5.30;;;3.47;;
10126;SDS011;13080;42.608;23.362;2022-07-23T03:32:49;6.85;;;3.75;;
10126;SDS011;13080;42.608;23.362;2022-07-23T03:35:16;8.80;;;4.03;;
10126;SDS011;13080;42.608;23.362;2022-07-23T03:37:42;11.52;;;4.03;;
10126;SDS011;13080;42.608;23.362;2022-07-23T03:40:11;5.47;;;3.00;;
10126;SDS011;13080;42.608;23.362;2022-07-23T03:42:38;7.40;;;5.75;;
10126;SDS011;13080;42.608;23.362;2022-07-23T03:45:07;6.13;;;4.85;;
10126;SDS011;13080;42.608;23.362;2022-07-23T03:47:34;7.97;;;4.32;;
10126;SDS011;13080;42.608;23.362;2022-07-23T03:50:01;5.30;;;3.72;;
10126;SDS011;13080;42.608;23.362;2022-07-23T03:52:28;7.20;;;3.97;;
10126;SDS011;13080;42.608;23.362;2022-07-23T03:54:55;5.18;;;3.38;;
10126;SDS011;13080;42.608;23.362;2022-07-23T03:57:23;9.90;;;4.47;;
10126;SDS011;13080;42.608;23.362;2022-07-23T03:59:50;9.23;;;3.90;;
10126;SDS011;13080;42.608;23.362;2022-07-23T04:02:17;8.82;;;4.00;;
10126;SDS011;13080;42.608;23.362;2022-07-23T04:04:43;14.35;;;4.10;;
10126;SDS011;13080;42.608;23.362;2022-07-23T04:07:10;5.85;;;4.22;;
10126;SDS011;13080;42.608;23.362;2022-07-23T04:09:37;7.72;;;4.97;;
10126;SDS011;13080;42.608;23.362;2022-07-23T04:12:05;4.88;;;3.95;;
10126;SDS011;13080;42.608;23.362;2022-07-23T04:14:34;7.53;;;4.43;;
10126;SDS011;13080;42.608;23.362;2022-07-23T04:17:01;4.88;;;3.50;;
10126;SDS011;13080;42.608;23.362;2022-07-23T04:19:28;14.32;;;4.00;;
10126;SDS011;13080;42.608;23.362;2022-07-23T04:21:55;7.63;;;4.07;;
10126;SDS011;13080;42.608;23.362;2022-07-23T04:24:22;7.25;;;3.47;;
10126;SDS011;13080;42.608;23.362;2022-07-23T04:26:49;7.55;;;4.35;;
10126;SDS011;13080;42.608;23.362;2022-07-23T04:29:16;8.95;;;4.20;;
10126;SDS011;13080;42.608;23.362;2022-07-23T04:31:44;9.90;;;4.22;;
10126;SDS011;13080;42.608;23.362;2022-07-23T04:34:11;5.40;;;4.38;;
10126;SDS011;13080;42.608;23.362;2022-07-23T04:36:38;5.63;;;3.63;;
10126;SDS011;13080;42.608;23.362;2022-07-23T04:39:04;9.15;;;4.15;;
10126;SDS011;13080;42.608;23.362;2022-07-23T04:41:31;8.82;;;4.68;;
10126;SDS011;13080;42.608;23.362;2022-07-23T04:43:59;9.38;;;3.50;;
10126;SDS011;13080;42.608;23.362;2022-07-23T04:46:26;10.45;;;4.22;;
10126;SDS011;13080;42.608;23.362;2022-07-23T04:48:54;6.75;;;4.43;;
10126;SDS011;13080;42.608;23.362;2022-07-23T04:51:21;9.40;;;4.47;;
10126;SDS011;13080;42.608;23.362;2022-07-23T04:53:48;7.10;;;4.50;;
10126;SDS011;13080;42.608;23.362;2022-07-23T04:56:15;9.15;;;4.57;;
10126;SDS011;13080;42.608;23.362;2022-07-23T04:58:42;5.03;;;4.15;;
10126;SDS011;13080;42.608;23.362;2022-07-23T05:01:09;6.65;;;4.50;;
10126;SDS011;13080;42.608;23.362;2022-07-23T05:03:36;7.40;;;4.57;;
10126;SDS011;13080;42.608;23.362;2022-07-23T05:06:04;11.05;;;4.80;;
10126;SDS011;13080;42.608;23.362;2022-07-23T05:08:31;7.15;;;4.88;;
10126;SDS011;13080;42.608;23.362;2022-07-23T05:10:58;10.85;;;5.30;;
10126;SDS011;13080;42.608;23.362;2022-07-23T05:13:24;9.32;;;5.45;;
10126;SDS011;13080;42.608;23.362;2022-07-23T05:15:51;10.52;;;5.68;;
10126;SDS011;13080;42.608;23.362;2022-07-23T05:18:18;6.50;;;4.88;;
10126;SDS011;13080;42.608;23.362;2022-07-23T05:20:45;6.85;;;4.63;;
10126;SDS011;13080;42.608;23.362;2022-07-23T05:23:13;9.48;;;4.80;;
10126;SDS011;13080;42.608;23.362;2022-07-23T05:25:40;8.27;;;4.97;;
10126;SDS011;13080;42.608;23.362;2022-07-23T05:28:07;7.50;;;4.40;;
10126;SDS011;13080;42.608;23.362;2022-07-23T05:30:33;6.72;;;4.90;;
10126;SDS011;13080;42.608;23.362;2022-07-23T05:33:00;8.85;;;5.22;;
10126;SDS011;13080;42.608;23.362;2022-07-23T05:35:27;9.43;;;5.22;;
10126;SDS011;13080;42.608;23.362;2022-07-23T05:37:54;7.45;;;4.72;;
10126;SDS011;13080;42.608;23.362;2022-07-23T05:40:22;11.55;;;5.60;;
10126;SDS011;13080;42.608;23.362;2022-07-23T05:42:49;7.05;;;4.97;;
10126;SDS011;13080;42.608;23.362;2022-07-23T05:45:16;6.50;;;4.82;;
10126;SDS011;13080;42.608;23.362;2022-07-23T05:47:43;7.57;;;4.78;;
10126;SDS011;13080;42.608;23.362;2022-07-23T05:50:11;7.53;;;4.82;;
10126;SDS011;13080;42.608;23.362;2022-07-23T05:52:38;9.75;;;5.50;;
10126;SDS011;13080;42.608;23.362;2022-07-23T05:55:05;8.73;;;5.15;;
10126;SDS011;13080;42.608;23.362;2022-07-23T05:57:34;7.15;;;4.88;;
10126;SDS011;13080;42.608;23.362;2022-07-23T06:00:02;9.60;;;4.40;;
10126;SDS011;13080;42.608;23.362;2022-07-23T06:02:30;5.75;;;4.28;;
10126;SDS011;13080;42.608;23.362;2022-07-23T06:04:56;8.18;;;4.90;;
10126;SDS011;13080;42.608;23.362;2022-07-23T06:07:23;10.80;;;4.75;;
10126;SDS011;13080;42.608;23.362;2022-07-23T06:09:50;7.28;;;4.55;;
10126;SDS011;13080;42.608;23.362;2022-07-23T06:12:17;7.25;;;4.18;;
10126;SDS011;13080;42.608;23.362;2022-07-23T06:14:45;7.97;;;4.32;;
10126;SDS011;13080;42.608;23.362;2022-07-23T06:17:13;7.60;;;5.00;;
10126;SDS011;13080;42.608;23.362;2022-07-23T06:19:40;9.98;;;4.93;;
10126;SDS011;13080;42.608;23.362;2022-07-23T06:22:07;8.43;;;5.15;;
10126;SDS011;13080;42.608;23.362;2022-07-23T06:24:33;7.78;;;4.68;;
10126;SDS011;13080;42.608;23.362;2022-07-23T06:27:00;6.43;;;5.07;;
10126;SDS011;13080;42.608;23.362;2022-07-23T06:29:27;20.40;;;4.65;;
10126;SDS011;13080;42.608;23.362;2022-07-23T06:31:55;9.43;;;4.85;;
10126;SDS011;13080;42.608;23.362;2022-07-23T06:34:22;6.05;;;4.60;;
10126;SDS011;13080;42.608;23.362;2022-07-23T06:36:49;10.77;;;4.97;;
10126;SDS011;13080;42.608;23.362;2022-07-23T06:39:15;13.15;;;5.15;;
10126;SDS011;13080;42.608;23.362;2022-07-23T06:41:42;12.70;;;4.30;;
10126;SDS011;13080;42.608;23.362;2022-07-23T06:44:10;6.85;;;4.40;;
10126;SDS011;13080;42.608;23.362;2022-07-23T06:46:37;7.00;;;4.65;;
10126;SDS011;13080;42.608;23.362;2022-07-23T06:49:05;5.55;;;4.05;;
10126;SDS011;13080;42.608;23.362;2022-07-23T06:51:32;8.18;;;4.60;;
10126;SDS011;13080;42.608;23.362;2022-07-23T06:53:59;8.30;;;4.80;;
10126;SDS011;13080;42.608;23.362;2022-07-23T06:56:26;8.20;;;4.30;;
10126;SDS011;13080;42.608;23.362;2022-07-23T06:58:52;6.85;;;4.30;;
10126;SDS011;13080;42.608;23.362;2022-07-23T07:01:19;7.93;;;4.70;;
10126;SDS011;13080;42.608;23.362;2022-07-23T07:03:46;5.93;;;4.20;;
10126;SDS011;13080;42.608;23.362;2022-07-23T07:06:15;9.25;;;4.88;;
10126;SDS011;13080;42.608;23.362;2022-07-23T07:08:41;10.82;;;4.18;;
10126;SDS011;13080;42.608;23.362;2022-07-23T07:11:09;10.65;;;5.00;;
10126;SDS011;13080;42.608;23.362;2022-07-23T07:13:36;8.65;;;4.65;;
10126;SDS011;13080;42.608;23.362;2022-07-23T07:16:03;8.65;;;4.80;;
10126;SDS011;13080;42.608;23.362;2022-07-23T07:18:30;7.80;;;4.13;;
10126;SDS011;13080;42.608;23.362;2022-07-23T07:20:57;9.05;;;4.40;;
10126;SDS011;13080;42.608;23.362;2022-07-23T07:23:25;8.75;;;4.30;;
10126;SDS011;13080;42.608;23.362;2022-07-23T07:25:52;12.75;;;4.28;;
10126;SDS011;13080;42.608;23.362;2022-07-23T07:28:19;6.82;;;4.28;;
10126;SDS011;13080;42.608;23.362;2022-07-23T07:30:46;7.32;;;4.47;;
10126;SDS011;13080;42.608;23.362;2022-07-23T07:33:12;9.18;;;4.18;;
10126;SDS011;13080;42.608;23.362;2022-07-23T07:35:39;9.48;;;4.50;;
10126;SDS011;13080;42.608;23.362;2022-07-23T07:38:06;9.85;;;4.35;;
10126;SDS011;13080;42.608;23.362;2022-07-23T07:40:34;8.95;;;4.07;;
10126;SDS011;13080;42.608;23.362;2022-07-23T07:43:01;5.43;;;3.88;;
10126;SDS011;13080;42.608;23.362;2022-07-23T07:45:28;7.25;;;4.38;;
10126;SDS011;13080;42.608;23.362;2022-07-23T07:47:55;12.98;;;4.45;;
10126;SDS011;13080;42.608;23.362;2022-07-23T07:50:23;5.88;;;4.47;;
10126;SDS011;13080;42.608;23.362;2022-07-23T07:52:50;7.78;;;4.32;;
10126;SDS011;13080;42.608;23.362;2022-07-23T07:55:16;6.35;;;4.00;;
10126;SDS011;13080;42.608;23.362;2022-07-23T07:57:44;15.23;;;4.85;;
10126;SDS011;13080;42.608;23.362;2022-07-23T08:00:11;5.68;;;4.05;;
10126;SDS011;13080;42.608;23.362;2022-07-23T08:02:39;10.20;;;4.35;;
10126;SDS011;13080;42.608;23.362;2022-07-23T08:05:09;13.23;;;4.13;;
10126;SDS011;13080;42.608;23.362;2022-07-23T08:07:37;11.82;;;4.15;;
10126;SDS011;13080;42.608;23.362;2022-07-23T08:10:05;8.35;;;4.38;;
10126;SDS011;13080;42.608;23.362;2022-07-23T08:12:40;8.07;;;4.13;;
10126;SDS011;13080;42.608;23.362;2022-07-23T08:15:11;15.05;;;3.92;;
10126;SDS011;13080;42.608;23.362;2022-07-23T08:17:39;5.38;;;4.35;;
10126;SDS011;13080;42.608;23.362;2022-07-23T08:20:06;6.95;;;4.50;;
10126;SDS011;13080;42.608;23.362;2022-07-23T08:22:44;11.77;;;4.28;;
10126;SDS011;13080;42.608;23.362;2022-07-23T08:25:11;7.30;;;3.88;;
10126;SDS011;13080;42.608;23.362;2022-07-23T08:27:38;7.03;;;4.43;;
10126;SDS011;13080;42.608;23.362;2022-07-23T08:30:05;11.93;;;4.32;;
10126;SDS011;13080;42.608;23.362;2022-07-23T08:32:35;7.45;;;4.40;;
10126;SDS011;13080;42.608;23.362;2022-07-23T08:35:14;7.07;;;4.32;;
10126;SDS011;13080;42.608;23.362;2022-07-23T08:37:41;11.90;;;4.68;;
10126;SDS011;13080;42.608;23.362;2022-07-23T08:40:08;10.27;;;4.45;;
10126;SDS011;13080;42.608;23.362;2022-07-23T08:42:36;6.35;;;4.35;;
10126;SDS011;13080;42.608;23.362;2022-07-23T08:45:03;10.95;;;4.30;;
10126;SDS011;13080;42.608;23.362;2022-07-23T08:47:33;6.47;;;4.05;;
10126;SDS011;13080;42.608;23.362;2022-07-23T08:50:02;8.80;;;4.63;;
10126;SDS011;13080;42.608;23.362;2022-07-23T08:52:30;9.88;;;4.30;;
10126;SDS011;13080;42.608;23.362;2022-07-23T08:54:57;10.77;;;4.70;;
10126;SDS011;13080;42.608;23.362;2022-07-23T08:57:24;6.30;;;4.05;;
10126;SDS011;13080;42.608;23.362;2022-07-23T08:59:51;14.00;;;4.50;;
10126;SDS011;13080;42.608;23.362;2022-07-23T09:02:18;6.75;;;4.53;;
10126;SDS011;13080;42.608;23.362;2022-07-23T09:04:46;13.02;;;4.45;;
10126;SDS011;13080;42.608;23.362;2022-07-23T09:07:13;9.60;;;4.38;;
10126;SDS011;13080;42.608;23.362;2022-07-23T09:09:39;8.32;;;4.38;;
10126;SDS011;13080;42.608;23.362;2022-07-23T09:12:07;9.30;;;4.85;;
10126;SDS011;13080;42.608;23.362;2022-07-23T09:14:36;9.95;;;4.95;;
10126;SDS011;13080;42.608;23.362;2022-07-23T09:17:10;11.30;;;4.65;;
10126;SDS011;13080;42.608;23.362;2022-07-23T09:19:38;8.15;;;4.15;;
10126;SDS011;13080;42.608;23.362;2022-07-23T09:22:19;7.25;;;3.67;;
10126;SDS011;13080;42.608;23.362;2022-07-23T09:25:03;6.03;;;3.90;;
10126;SDS011;13080;42.608;23.362;2022-07-23T09:27:45;6.82;;;3.97;;
10126;SDS011;13080;42.608;23.362;2022-07-23T09:30:13;6.32;;;4.18;;
10126;SDS011;13080;42.608;23.362;2022-07-23T09:32:40;5.90;;;4.43;;
10126;SDS011;13080;42.608;23.362;2022-07-23T09:35:07;7.05;;;4.00;;
10126;SDS011;13080;42.608;23.362;2022-07-23T09:37:35;9.18;;;4.45;;
10126;SDS011;13080;42.608;23.362;2022-07-23T09:40:06;6.82;;;4.38;;
10126;SDS011;13080;42.608;23.362;2022-07-23T09:42:37;6.47;;;3.80;;
10126;SDS011;13080;42.608;23.362;2022-07-23T09:45:04;10.45;;;4.68;;
10126;SDS011;13080;42.608;23.362;2022-07-23T09:47:37;7.63;;;4.20;;
10126;SDS011;13080;42.608;23.362;2022-07-23T09:50:05;6.53;;;4.00;;
10126;SDS011;13080;42.608;23.362;2022-07-23T09:52:40;8.18;;;4.00;;
10126;SDS011;13080;42.608;23.362;2022-07-23T09:55:11;6.00;;;3.92;;
10126;SDS011;13080;42.608;23.362;2022-07-23T09:57:38;5.93;;;3.40;;
10126;SDS011;13080;42.608;23.362;2022-07-23T10:00:07;8.85;;;4.35;;
10126;SDS011;13080;42.608;23.362;2022-07-23T10:02:36;5.55;;;3.10;;
10126;SDS011;13080;42.608;23.362;2022-07-23T10:05:03;13.77;;;3.55;;
10126;SDS011;13080;42.608;23.362;2022-07-23T10:07:32;12.20;;;3.70;;
10126;SDS011;13080;42.608;23.362;2022-07-23T10:10:05;12.35;;;3.30;;
10126;SDS011;13080;42.608;23.362;2022-07-23T10:12:32;6.38;;;3.38;;
10126;SDS011;13080;42.608;23.362;2022-07-23T10:15:28;5.13;;;3.00;;
10126;SDS011;13080;42.608;23.362;2022-07-23T10:17:55;9.05;;;4.00;;
10126;SDS011;13080;42.608;23.362;2022-07-23T10:20:22;11.52;;;3.65;;
10126;SDS011;13080;42.608;23.362;2022-07-23T10:22:54;9.52;;;3.58;;
10126;SDS011;13080;42.608;23.362;2022-07-23T10:25:32;7.38;;;3.47;;
10126;SDS011;13080;42.608;23.362;2022-07-23T10:28:15;9.52;;;3.75;;
10126;SDS011;13080;42.608;23.362;2022-07-23T10:31:00;8.32;;;4.15;;
10126;SDS011;13080;42.608;23.362;2022-07-23T10:33:32;7.10;;;3.60;;
10126;SDS011;13080;42.608;23.362;2022-07-23T10:36:11;8.50;;;3.42;;
10126;SDS011;13080;42.608;23.362;2022-07-23T10:38:47;15.40;;;4.22;;
10126;SDS011;13080;42.608;23.362;2022-07-23T10:41:32;5.93;;;3.75;;
10126;SDS011;13080;42.608;23.362;2022-07-23T10:44:07;8.75;;;3.92;;
10126;SDS011;13080;42.608;23.362;2022-07-23T10:46:35;5.65;;;3.30;;
10126;SDS011;13080;42.608;23.362;2022-07-23T10:49:22;9.95;;;3.30;;
10126;SDS011;13080;42.608;23.362;2022-07-23T10:54:46;9.27;;;4.22;;
10126;SDS011;13080;42.608;23.362;2022-07-23T10:57:17;11.85;;;3.47;;
10126;SDS011;13080;42.608;23.362;2022-07-23T11:02:46;5.07;;;3.10;;
10126;SDS011;13080;42.608;23.362;2022-07-23T11:05:15;9.38;;;3.20;;
10126;SDS011;13080;42.608;23.362;2022-07-23T11:10:40;11.73;;;4.20;;
10126;SDS011;13080;42.608;23.362;2022-07-23T11:16:14;8.38;;;3.67;;
10126;SDS011;13080;42.608;23.362;2022-07-23T11:21:40;8.05;;;3.92;;
10126;SDS011;13080;42.608;23.362;2022-07-23T11:24:12;7.55;;;3.58;;
10126;SDS011;13080;42.608;23.362;2022-07-23T11:26:44;8.50;;;3.53;;
10126;SDS011;13080;42.608;23.362;2022-07-23T11:35:06;9.45;;;3.85;;
10126;SDS011;13080;42.608;23.362;2022-07-23T11:37:46;11.27;;;4.00;;
10126;SDS011;13080;42.608;23.362;2022-07-23T11:40:14;10.05;;;3.08;;
10126;SDS011;13080;42.608;23.362;2022-07-23T11:42:52;11.13;;;4.47;;
10126;SDS011;13080;42.608;23.362;2022-07-23T11:45:22;9.23;;;3.40;;
10126;SDS011;13080;42.608;23.362;2022-07-23T11:47:50;15.75;;;3.45;;
10126;SDS011;13080;42.608;23.362;2022-07-23T11:50:17;11.65;;;3.40;;
10126;SDS011;13080;42.608;23.362;2022-07-23T11:52:44;5.18;;;3.33;;
10126;SDS011;13080;42.608;23.362;2022-07-23T11:55:11;7.20;;;3.28;;
10126;SDS011;13080;42.608;23.362;2022-07-23T11:57:41;13.30;;;3.55;;
10126;SDS011;13080;42.608;23.362;2022-07-23T12:00:09;16.27;;;3.40;;
10126;SDS011;13080;42.608;23.362;2022-07-23T12:02:38;7.55;;;3.67;;
10126;SDS011;13080;42.608;23.362;2022-07-23T12:05:07;7.88;;;3.60;;
10126;SDS011;13080;42.608;23.362;2022-07-23T12:07:38;11.32;;;3.88;;
10126;SDS011;13080;42.608;23.362;2022-07-23T12:10:09;7.80;;;3.28;;
10126;SDS011;13080;42.608;23.362;2022-07-23T12:12:37;7.80;;;2.80;;
10126;SDS011;13080;42.608;23.362;2022-07-23T12:15:05;11.00;;;3.00;;
10126;SDS011;13080;42.608;23.362;2022-07-23T12:17:34;15.15;;;3.83;;
10126;SDS011;13080;42.608;23.362;2022-07-23T12:20:02;17.33;;;3.65;;
10126;SDS011;13080;42.608;23.362;2022-07-23T12:22:36;7.38;;;3.10;;
10126;SDS011;13080;42.608;23.362;2022-07-23T12:25:05;10.82;;;3.33;;
10126;SDS011;13080;42.608;23.362;2022-07-23T12:27:34;14.18;;;3.83;;
10126;SDS011;13080;42.608;23.362;2022-07-23T12:30:17;11.35;;;3.00;;
10126;SDS011;13080;42.608;23.362;2022-07-23T12:32:45;10.20;;;3.35;;
10126;SDS011;13080;42.608;23.362;2022-07-23T12:35:13;8.10;;;3.25;;
10126;SDS011;13080;42.608;23.362;2022-07-23T12:37:42;10.93;;;3.30;;
10126;SDS011;13080;42.608;23.362;2022-07-23T12:40:27;9.07;;;3.90;;
10126;SDS011;13080;42.608;23.362;2022-07-23T12:42:57;7.07;;;3.10;;
10126;SDS011;13080;42.608;23.362;2022-07-23T12:45:25;16.20;;;3.35;;
10126;SDS011;13080;42.608;23.362;2022-07-23T12:47:53;11.90;;;3.30;;
10126;SDS011;13080;42.608;23.362;2022-07-23T12:50:37;8.07;;;2.97;;
10126;SDS011;13080;42.608;23.362;2022-07-23T12:53:08;6.22;;;3.28;;
10126;SDS011;13080;42.608;23.362;2022-07-23T12:55:37;7.30;;;2.95;;
10126;SDS011;13080;42.608;23.362;2022-07-23T12:58:09;11.98;;;3.40;;
10126;SDS011;13080;42.608;23.362;2022-07-23T13:03:33;5.88;;;2.97;;
10126;SDS011;13080;42.608;23.362;2022-07-23T13:06:02;11.07;;;3.60;;
10126;SDS011;13080;42.608;23.362;2022-07-23T13:08:33;15.48;;;3.75;;
10126;SDS011;13080;42.608;23.362;2022-07-23T13:11:01;13.90;;;3.40;;
10126;SDS011;13080;42.608;23.362;2022-07-23T13:13:30;10.27;;;3.58;;
10126;SDS011;13080;42.608;23.362;2022-07-23T13:15:59;11.30;;;3.42;;
10126;SDS011;13080;42.608;23.362;2022-07-23T13:18:26;5.20;;;3.20;;
10126;SDS011;13080;42.608;23.362;2022-07-23T13:20:54;8.13;;;3.08;;
10126;SDS011;13080;42.608;23.362;2022-07-23T13:23:21;15.20;;;3.65;;
10126;SDS011;13080;42.608;23.362;2022-07-23T13:25:49;13.55;;;3.25;;
10126;SDS011;13080;42.608;23.362;2022-07-23T13:28:18;13.70;;;3.45;;
10126;SDS011;13080;42.608;23.362;2022-07-23T13:30:46;11.27;;;3.38;;
10126;SDS011;13080;42.608;23.362;2022-07-23T13:33:15;9.57;;;3.13;;
10126;SDS011;13080;42.608;23.362;2022-07-23T13:35:42;12.10;;;3.10;;
10126;SDS011;13080;42.608;23.362;2022-07-23T13:38:09;11.48;;;2.90;;
10126;SDS011;13080;42.608;23.362;2022-07-23T13:40:36;7.68;;;3.15;;
10126;SDS011;13080;42.608;23.362;2022-07-23T13:43:08;8.68;;;3.28;;
10126;SDS011;13080;42.608;23.362;2022-07-23T13:45:36;9.30;;;2.92;;
10126;SDS011;13080;42.608;23.362;2022-07-23T13:48:03;6.80;;;3.35;;
10126;SDS011;13080;42.608;23.362;2022-07-23T13:50:31;11.98;;;3.25;;
10126;SDS011;13080;42.608;23.362;2022-07-23T13:53:00;11.10;;;3.40;;
10126;SDS011;13080;42.608;23.362;2022-07-23T13:55:27;16.40;;;3.97;;
10126;SDS011;13080;42.608;23.362;2022-07-23T13:57:54;9.75;;;3.30;;
10126;SDS011;13080;42.608;23.362;2022-07-23T14:00:22;14.98;;;3.90;;
10126;SDS011;13080;42.608;23.362;2022-07-23T14:02:49;11.35;;;3.30;;
10126;SDS011;13080;42.608;23.362;2022-07-23T14:05:16;10.07;;;3.35;;
10126;SDS011;13080;42.608;23.362;2022-07-23T14:07:43;10.57;;;3.22;;
10126;SDS011;13080;42.608;23.362;2022-07-23T14:10:12;9.95;;;3.53;;
10126;SDS011;13080;42.608;23.362;2022-07-23T14:12:39;11.13;;;3.28;;
10126;SDS011;13080;42.608;23.362;2022-07-23T14:15:06;7.15;;;2.92;;
10126;SDS011;13080;42.608;23.362;2022-07-23T14:17:37;11.13;;;3.47;;
10126;SDS011;13080;42.608;23.362;2022-07-23T14:20:05;9.23;;;3.33;;
10126;SDS011;13080;42.608;23.362;2022-07-23T14:22:33;6.88;;;3.28;;
10126;SDS011;13080;42.608;23.362;2022-07-23T14:25:00;8.35;;;3.28;;
10126;SDS011;13080;42.608;23.362;2022-07-23T14:27:27;8.15;;;3.50;;
10126;SDS011;13080;42.608;23.362;2022-07-23T14:29:54;16.08;;;3.63;;
10126;SDS011;13080;42.608;23.362;2022-07-23T14:32:21;11.23;;;3.88;;
10126;SDS011;13080;42.608;23.362;2022-07-23T14:34:50;11.43;;;3.13;;
10126;SDS011;13080;42.608;23.362;2022-07-23T14:37:18;9.98;;;3.30;;
10126;SDS011;13080;42.608;23.362;2022-07-23T14:39:45;11.05;;;3.03;;
10126;SDS011;13080;42.608;23.362;2022-07-23T14:42:13;11.88;;;3.13;;
10126;SDS011;13080;42.608;23.362;2022-07-23T14:44:39;7.25;;;2.88;;
10126;SDS011;13080;42.608;23.362;2022-07-23T14:47:07;10.85;;;3.10;;
10126;SDS011;13080;42.608;23.362;2022-07-23T14:49:34;11.15;;;3.40;;
10126;SDS011;13080;42.608;23.362;2022-07-23T14:52:03;14.52;;;3.33;;
10126;SDS011;13080;42.608;23.362;2022-07-23T14:54:30;7.93;;;3.17;;
10126;SDS011;13080;42.608;23.362;2022-07-23T14:56:58;8.45;;;3.35;;
10126;SDS011;13080;42.608;23.362;2022-07-23T14:59:26;9.88;;;3.55;;
10126;SDS011;13080;42.608;23.362;2022-07-23T15:01:53;9.00;;;3.53;;